Time;durP1;ratioP1;P1;durP2;ratioP2;P2;SDS_P1;SDS_P2;PMS_P1;PMS_P2;Temp;Humidity;BMP_temperature;BMP_pressure;BME280_temperature;BME280_humidity;BME280_pressure;Samples;Min_cycle;Max_cycle;Signal;HPM_P1;HPM_P2
2023/03/29 00:00:26;;;;;;;4.37;2.30;;;8.80;99.90;;;;;;5030555;28;20472;-70
2023/03/29 00:02:55;;;;;;;2.50;1.80;;;8.80;99.90;;;;;;5046673;28;20520;-70
2023/03/29 00:05:21;;;;;;;2.27;1.53;;;8.80;99.90;;;;;;5027803;28;20501;-70
2023/03/29 00:07:52;;;;;;;3.50;1.90;;;8.80;99.90;;;;;;5048056;28;20473;-70
2023/03/29 00:10:22;;;;;;;2.80;1.40;;;8.80;99.90;;;;;;5016482;28;20458;-70
2023/03/29 00:12:51;;;;;;;3.27;1.87;;;8.80;99.90;;;;;;5053824;28;20888;-70
2023/03/29 00:15:17;;;;;;;2.73;1.97;;;8.70;99.90;;;;;;5048767;28;20465;-71
2023/03/29 00:17:43;;;;;;;1.90;1.80;;;8.70;99.90;;;;;;5030969;28;20457;-70
2023/03/29 00:20:09;;;;;;;2.50;2.20;;;8.70;99.90;;;;;;5045943;28;20211;-70
2023/03/29 00:22:40;;;;;;;2.40;2.10;;;8.70;99.90;;;;;;5048680;28;20573;-70
2023/03/29 00:25:07;;;;;;;2.10;1.50;;;8.80;99.90;;;;;;5013050;28;20987;-70
2023/03/29 00:27:33;;;;;;;2.03;1.83;;;8.70;99.90;;;;;;5031887;28;20454;-70
2023/03/29 00:29:59;;;;;;;2.00;1.80;;;8.70;99.90;;;;;;5025067;28;20627;-70
2023/03/29 00:32:25;;;;;;;2.63;1.70;;;8.70;99.90;;;;;;5030532;28;20689;-70
2023/03/29 00:34:51;;;;;;;2.20;2.00;;;8.70;99.90;;;;;;5046757;28;20254;-70
2023/03/29 00:37:17;;;;;;;1.47;1.20;;;8.70;99.90;;;;;;5013182;28;20728;-70
2023/03/29 00:39:44;;;;;;;2.47;1.40;;;8.70;99.90;;;;;;5030454;28;20212;-70
2023/03/29 00:42:15;;;;;;;2.47;1.67;;;8.70;99.90;;;;;;5048131;28;20501;-70
2023/03/29 00:44:59;;;;;;;5.93;1.90;;;8.70;99.90;;;;;;5008360;28;20529;-71
2023/03/29 00:47:28;;;;;;;2.57;2.00;;;8.60;99.90;;;;;;5028983;28;21010;-69
2023/03/29 00:49:56;;;;;;;1.70;1.60;;;8.60;99.90;;;;;;5013172;28;20438;-70
2023/03/29 00:52:23;;;;;;;2.33;1.63;;;8.60;99.90;;;;;;5030029;28;21010;-70
2023/03/29 00:54:54;;;;;;;2.60;1.70;;;8.60;99.90;;;;;;5012843;28;20445;-70
2023/03/29 00:57:21;;;;;;;3.07;1.67;;;8.60;99.90;;;;;;4998668;28;20977;-70
2023/03/29 00:59:49;;;;;;;2.03;1.60;;;8.60;99.90;;;;;;5021135;28;20560;-70
2023/03/29 01:02:16;;;;;;;1.87;1.73;;;8.50;99.90;;;;;;5036413;28;20473;-69
2023/03/29 01:04:51;;;;;;;1.50;1.40;;;8.40;99.90;;;;;;4998166;28;20451;-70
2023/03/29 01:07:20;;;;;;;1.93;1.73;;;8.50;99.90;;;;;;5011732;28;20516;-70
2023/03/29 01:09:56;;;;;;;2.67;1.53;;;8.50;99.90;;;;;;5027169;28;20468;-70
2023/03/29 01:12:26;;;;;;;1.60;1.50;;;8.60;99.90;;;;;;5028866;28;20545;-70
2023/03/29 01:15:01;;;;;;;1.40;1.30;;;8.60;99.90;;;;;;5013841;28;20453;-70
2023/03/29 01:17:30;;;;;;;1.97;1.87;;;8.60;99.90;;;;;;5028822;28;20875;-70
2023/03/29 01:20:14;;;;;;;1.80;1.70;;;8.50;99.90;;;;;;5010930;28;20459;-70
2023/03/29 01:22:59;;;;;;;2.13;1.93;;;8.50;99.90;;;;;;5059861;28;20469;-69
2023/03/29 01:25:54;;;;;;;2.43;1.67;;;8.50;99.90;;;;;;5012336;28;21019;-70
2023/03/29 01:28:25;;;;;;;1.93;1.47;;;8.50;99.90;;;;;;5060400;28;20467;-70
2023/03/29 01:31:12;;;;;;;1.87;1.77;;;8.60;99.90;;;;;;5030291;28;20537;-67
2023/03/29 01:33:44;;;;;;;2.47;1.90;;;8.60;99.90;;;;;;5039645;28;20449;-70
2023/03/29 01:36:33;;;;;;;2.60;1.70;;;8.50;99.90;;;;;;5016911;28;20536;-71
2023/03/29 01:39:05;;;;;;;2.50;1.83;;;8.50;99.90;;;;;;5016371;28;20474;-70
2023/03/29 01:41:51;;;;;;;2.53;2.23;;;8.50;99.90;;;;;;5033453;28;20830;-70
2023/03/29 01:44:26;;;;;;;2.17;2.07;;;8.50;99.90;;;;;;5015509;28;20466;-70
2023/03/29 01:47:30;;;;;;;2.23;2.00;;;8.50;99.90;;;;;;5032681;28;20455;-70
2023/03/29 01:50:11;;;;;;;2.60;2.10;;;8.40;99.90;;;;;;4961236;28;20457;-70
2023/03/29 01:52:49;;;;;;;3.20;2.43;;;8.50;99.90;;;;;;5043705;28;20461;-70
2023/03/29 01:55:20;;;;;;;3.27;2.50;;;8.50;99.90;;;;;;5031716;28;20485;-70
2023/03/29 01:57:47;;;;;;;2.00;1.87;;;8.40;99.90;;;;;;5026699;28;20550;-70
2023/03/29 02:00:23;;;;;;;2.00;1.80;;;8.40;99.90;;;;;;5039370;28;20470;-70
2023/03/29 02:02:51;;;;;;;3.40;2.50;;;8.40;99.90;;;;;;5050881;28;20516;-70
2023/03/29 02:05:19;;;;;;;1.70;1.50;;;8.40;99.90;;;;;;5018074;28;20453;-70
2023/03/29 02:07:47;;;;;;;7.63;2.27;;;8.40;99.90;;;;;;5035558;28;20503;-70
2023/03/29 02:10:15;;;;;;;5.70;1.90;;;8.40;99.90;;;;;;5039989;28;20466;-69
2023/03/29 02:12:41;;;;;;;1.87;1.77;;;8.40;99.90;;;;;;5055626;28;20478;-69
2023/03/29 02:15:17;;;;;;;3.30;1.80;;;8.40;99.90;;;;;;5040685;28;20984;-68
2023/03/29 02:17:43;;;;;;;2.93;2.10;;;8.40;99.90;;;;;;5029009;28;20902;-70
2023/03/29 02:20:19;;;;;;;4.07;2.73;;;8.40;99.90;;;;;;5033150;28;20457;-69
2023/03/29 02:22:48;;;;;;;3.93;2.63;;;8.40;99.90;;;;;;5046175;28;20236;-70
2023/03/29 02:25:16;;;;;;;3.50;2.67;;;8.40;99.90;;;;;;5023320;28;20517;-70
2023/03/29 02:27:42;;;;;;;5.60;3.10;;;8.40;99.90;;;;;;5021677;28;20507;-70
2023/03/29 02:30:10;;;;;;;7.10;3.07;;;8.40;99.90;;;;;;5016861;28;20537;-70
2023/03/29 02:32:54;;;;;;;4.10;2.20;;;8.50;99.90;;;;;;5045095;28;20677;-69
2023/03/29 02:35:33;;;;;;;4.90;2.10;;;8.40;99.90;;;;;;5021146;28;20474;-70
2023/03/29 02:38:01;;;;;;;2.33;2.13;;;8.50;99.90;;;;;;5037692;28;20453;-69
2023/03/29 02:40:28;;;;;;;3.23;2.17;;;8.40;99.90;;;;;;5036016;28;20458;-70
2023/03/29 02:42:55;;;;;;;2.47;2.27;;;8.40;99.90;;;;;;5009662;28;20464;-69
2023/03/29 02:45:22;;;;;;;3.13;2.60;;;8.40;99.90;;;;;;5023370;28;20458;-70
2023/03/29 02:47:54;;;;;;;5.33;2.50;;;8.40;99.90;;;;;;5019762;28;20476;-70
2023/03/29 02:50:24;;;;;;;3.80;2.97;;;8.40;99.90;;;;;;5037261;28;20546;-70
2023/03/29 02:53:04;;;;;;;3.93;3.10;;;8.30;99.90;;;;;;5021223;28;20459;-69
2023/03/29 02:55:35;;;;;;;2.53;2.30;;;8.30;99.90;;;;;;5015691;28;20488;-70
2023/03/29 02:58:07;;;;;;;3.30;2.57;;;8.30;99.90;;;;;;5038646;28;20546;-71
2023/03/29 03:00:39;;;;;;;3.67;2.90;;;8.30;99.90;;;;;;5011662;28;20459;-70
2023/03/29 03:03:06;;;;;;;3.67;3.07;;;8.30;99.90;;;;;;5031166;28;20524;-69
2023/03/29 03:05:33;;;;;;;3.93;2.87;;;8.30;99.90;;;;;;5020623;28;20451;-70
2023/03/29 03:07:59;;;;;;;3.70;2.50;;;8.30;99.90;;;;;;5021017;28;20460;-70
2023/03/29 03:10:24;;;;;;;2.87;2.40;;;8.30;99.90;;;;;;5028257;28;20469;-70
2023/03/29 03:12:50;;;;;;;8.40;2.30;;;8.30;99.90;;;;;;5015170;28;20221;-71
2023/03/29 03:15:16;;;;;;;3.57;2.30;;;8.30;99.90;;;;;;5029086;28;20227;-70
2023/03/29 03:17:43;;;;;;;5.53;2.30;;;8.30;99.90;;;;;;5047659;28;20220;-70
2023/03/29 03:20:13;;;;;;;2.70;2.40;;;8.20;99.90;;;;;;5031565;28;20229;-69
2023/03/29 03:22:41;;;;;;;2.50;2.23;;;8.20;99.90;;;;;;5028233;28;20528;-68
2023/03/29 03:25:10;;;;;;;3.07;2.40;;;8.20;99.90;;;;;;5014140;28;20478;-70
2023/03/29 03:27:37;;;;;;;2.47;2.27;;;8.20;99.90;;;;;;5027442;28;20454;-70
2023/03/29 03:30:05;;;;;;;6.33;2.47;;;8.20;99.90;;;;;;5014534;28;20458;-70
2023/03/29 03:32:54;;;;;;;1.63;1.53;;;8.20;99.90;;;;;;4991965;28;20450;-70
2023/03/29 03:35:20;;;;;;;2.20;2.00;;;8.20;99.90;;;;;;5015326;28;20474;-69
2023/03/29 03:37:47;;;;;;;3.70;2.60;;;8.20;99.90;;;;;;5030830;28;20227;-69
2023/03/29 03:40:14;;;;;;;2.87;2.00;;;8.20;99.90;;;;;;5031118;28;20519;-69
2023/03/29 03:42:40;;;;;;;3.20;2.33;;;8.20;99.90;;;;;;5017158;28;20470;-69
2023/03/29 03:45:08;;;;;;;3.27;2.20;;;8.20;99.90;;;;;;5008637;28;20463;-68
2023/03/29 03:47:50;;;;;;;3.80;2.80;;;8.20;99.90;;;;;;5024519;28;20453;-69
2023/03/29 03:50:23;;;;;;;3.67;2.37;;;8.20;99.90;;;;;;5015619;28;20462;-68
2023/03/29 03:52:49;;;;;;;2.87;2.47;;;8.20;99.90;;;;;;5046188;28;20455;-68
2023/03/29 03:55:15;;;;;;;4.20;2.40;;;8.20;99.90;;;;;;5046772;28;20464;-68
2023/03/29 03:57:50;;;;;;;3.00;2.47;;;8.20;99.90;;;;;;5013225;28;20517;-67
2023/03/29 04:00:18;;;;;;;3.07;2.10;;;8.20;99.90;;;;;;5026245;28;20465;-70
2023/03/29 04:02:47;;;;;;;3.30;2.67;;;8.20;99.90;;;;;;5031072;28;20498;-70
2023/03/29 04:05:13;;;;;;;4.20;2.90;;;8.20;99.90;;;;;;5000644;28;20839;-70
2023/03/29 04:07:40;;;;;;;3.13;2.50;;;8.20;99.90;;;;;;5013342;28;20570;-70
2023/03/29 04:10:24;;;;;;;3.37;2.57;;;8.10;99.90;;;;;;5032101;28;20466;-70
2023/03/29 04:12:57;;;;;;;3.03;2.40;;;8.10;99.90;;;;;;4995779;28;20459;-67
2023/03/29 04:15:25;;;;;;;3.67;2.60;;;8.10;99.90;;;;;;5024967;28;20470;-69
2023/03/29 04:17:59;;;;;;;2.37;2.17;;;8.10;99.90;;;;;;5026358;28;20462;-69
2023/03/29 04:20:30;;;;;;;3.67;1.83;;;8.10;99.90;;;;;;5008625;28;20492;-69
2023/03/29 04:22:57;;;;;;;4.63;2.67;;;8.10;99.90;;;;;;5011606;28;20840;-70
2023/03/29 04:25:24;;;;;;;2.00;1.90;;;8.10;99.90;;;;;;5027529;28;20555;-70
2023/03/29 04:28:10;;;;;;;2.67;2.47;;;8.10;99.90;;;;;;5045702;28;20223;-70
2023/03/29 04:30:45;;;;;;;3.10;2.47;;;8.10;99.90;;;;;;5030796;28;20457;-70
2023/03/29 04:33:31;;;;;;;3.30;2.87;;;8.10;99.90;;;;;;5028047;28;20540;-70
2023/03/29 04:35:59;;;;;;;4.90;2.80;;;8.10;99.90;;;;;;5024375;28;20471;-69
2023/03/29 04:38:25;;;;;;;3.43;2.53;;;8.10;99.90;;;;;;5014467;28;20549;-69
2023/03/29 04:40:54;;;;;;;5.73;2.43;;;8.10;99.90;;;;;;5026179;28;20222;-67
2023/03/29 04:43:36;;;;;;;2.53;2.33;;;8.10;99.90;;;;;;5013229;28;20855;-69
2023/03/29 04:46:17;;;;;;;3.83;3.50;;;8.10;99.90;;;;;;5028942;28;20459;-69
2023/03/29 04:49:01;;;;;;;4.20;2.70;;;8.10;99.90;;;;;;5013788;28;20465;-69
2023/03/29 04:51:37;;;;;;;3.93;2.70;;;8.10;99.90;;;;;;5016952;28;20447;-70
2023/03/29 04:54:04;;;;;;;4.23;2.80;;;8.10;99.90;;;;;;5010461;28;20459;-69
2023/03/29 04:56:36;;;;;;;3.30;2.60;;;8.10;99.90;;;;;;5006677;28;20941;-70
2023/03/29 04:59:28;;;;;;;2.43;2.23;;;8.10;99.90;;;;;;5001663;28;20518;-69
2023/03/29 05:01:54;;;;;;;3.63;2.50;;;8.10;99.90;;;;;;5013061;28;20553;-67
2023/03/29 05:04:20;;;;;;;5.20;3.10;;;8.10;99.90;;;;;;5030181;28;20222;-69
2023/03/29 05:07:01;;;;;;;5.57;3.93;;;8.10;99.90;;;;;;5029777;28;20224;-69
2023/03/29 05:09:28;;;;;;;4.93;3.80;;;8.10;99.90;;;;;;5028945;28;20504;-69
2023/03/29 05:11:54;;;;;;;5.50;3.90;;;8.10;99.90;;;;;;5016928;28;20460;-69
2023/03/29 05:14:22;;;;;;;4.70;3.90;;;8.10;99.90;;;;;;5045838;28;20454;-68
2023/03/29 05:16:48;;;;;;;6.13;3.10;;;8.00;99.90;;;;;;5050497;28;20458;-68
2023/03/29 05:19:14;;;;;;;4.17;3.50;;;8.00;99.90;;;;;;5016377;28;20967;-68
2023/03/29 05:21:45;;;;;;;4.10;3.23;;;8.00;99.90;;;;;;5049077;28;20812;-70
2023/03/29 05:24:13;;;;;;;2.57;2.37;;;8.10;99.90;;;;;;5017378;28;20470;-70
2023/03/29 05:26:59;;;;;;;2.70;2.27;;;8.00;99.90;;;;;;5051330;28;20464;-68
2023/03/29 05:29:27;;;;;;;3.50;2.90;;;8.00;99.90;;;;;;5029686;28;20833;-69
2023/03/29 05:32:05;;;;;;;2.57;2.20;;;8.10;99.90;;;;;;5016821;28;20447;-69
2023/03/29 05:34:32;;;;;;;2.20;2.10;;;8.10;99.90;;;;;;5032351;28;20958;-68
2023/03/29 05:37:00;;;;;;;4.90;2.90;;;8.10;99.90;;;;;;5016926;28;20460;-70
2023/03/29 05:39:32;;;;;;;3.33;2.67;;;8.10;99.90;;;;;;5029619;28;20864;-70
2023/03/29 05:41:59;;;;;;;5.47;3.43;;;8.10;99.90;;;;;;5032363;28;20474;-69
2023/03/29 05:44:28;;;;;;;6.50;3.93;;;8.10;99.90;;;;;;5023532;28;20449;-69
2023/03/29 05:47:02;;;;;;;6.03;4.33;;;8.10;99.90;;;;;;5031436;28;20461;-69
2023/03/29 05:49:28;;;;;;;4.43;3.20;;;8.10;99.90;;;;;;5045907;28;20457;-68
2023/03/29 05:52:02;;;;;;;4.13;3.73;;;8.00;99.90;;;;;;5030665;28;20646;-70
2023/03/29 05:54:29;;;;;;;3.73;3.23;;;8.00;99.90;;;;;;5026763;28;20814;-68
2023/03/29 05:56:56;;;;;;;4.03;3.17;;;8.00;99.90;;;;;;5027450;28;20557;-69
2023/03/29 05:59:23;;;;;;;3.00;2.40;;;8.00;99.90;;;;;;5003993;28;20890;-71
2023/03/29 06:01:49;;;;;;;5.63;2.80;;;8.00;99.90;;;;;;5013111;28;20224;-69
2023/03/29 06:04:19;;;;;;;3.07;2.77;;;8.00;99.90;;;;;;5008455;28;20537;-70
2023/03/29 06:06:56;;;;;;;3.93;3.20;;;8.00;99.90;;;;;;5001608;28;21161;-68
2023/03/29 06:09:22;;;;;;;3.97;3.13;;;8.00;99.90;;;;;;5018751;28;20455;-70
2023/03/29 06:11:57;;;;;;;3.77;3.37;;;8.00;99.90;;;;;;5012237;28;20449;-70
2023/03/29 06:14:44;;;;;;;2.67;2.40;;;8.10;99.90;;;;;;5034949;28;20885;-69
2023/03/29 06:17:26;;;;;;;6.93;3.53;;;8.10;99.90;;;;;;5030079;28;20528;-68
2023/03/29 06:19:52;;;;;;;6.00;3.50;;;8.10;99.90;;;;;;5032935;28;20490;-70
2023/03/29 06:22:20;;;;;;;3.80;2.90;;;8.10;99.90;;;;;;5045087;28;20498;-68
2023/03/29 06:24:46;;;;;;;4.57;2.70;;;8.10;99.90;;;;;;5032293;28;20474;-70
2023/03/29 06:27:22;;;;;;;8.07;3.53;;;8.10;99.90;;;;;;5029528;28;20706;-70
2023/03/29 06:29:48;;;;;;;3.60;3.00;;;8.10;99.90;;;;;;5011120;28;20536;-70
2023/03/29 06:32:14;;;;;;;4.80;2.83;;;8.10;99.90;;;;;;5026370;28;21047;-69
2023/03/29 06:34:49;;;;;;;3.70;3.30;;;8.10;99.90;;;;;;5023011;28;20215;-70
2023/03/29 06:37:30;;;;;;;4.13;3.13;;;8.10;99.90;;;;;;5029692;28;20540;-70
2023/03/29 06:40:09;;;;;;;5.30;3.87;;;8.10;99.90;;;;;;5025039;28;20469;-71
2023/03/29 06:42:41;;;;;;;4.90;3.50;;;8.10;99.90;;;;;;5026140;28;21010;-70
2023/03/29 06:45:16;;;;;;;3.87;2.70;;;8.10;99.90;;;;;;5030904;28;20539;-70
2023/03/29 06:47:46;;;;;;;3.90;2.90;;;8.10;99.90;;;;;;5028962;28;20447;-69
2023/03/29 06:50:13;;;;;;;5.83;3.70;;;8.10;99.90;;;;;;5032282;28;20470;-69
2023/03/29 06:52:46;;;;;;;4.20;2.33;;;8.20;99.90;;;;;;5016723;28;20223;-70
2023/03/29 06:55:12;;;;;;;3.23;2.83;;;8.20;99.90;;;;;;5030679;28;20824;-70
2023/03/29 06:57:39;;;;;;;4.83;2.90;;;8.20;99.90;;;;;;5031210;28;20472;-70
2023/03/29 07:00:18;;;;;;;5.17;2.80;;;8.20;99.90;;;;;;5044650;28;20462;-69
2023/03/29 07:03:08;;;;;;;3.27;2.97;;;8.20;99.90;;;;;;5022412;28;20477;-70
2023/03/29 07:05:40;;;;;;;3.83;2.90;;;8.20;99.90;;;;;;5031421;28;20460;-70
2023/03/29 07:10:46;;;;;;;4.37;2.80;;;8.30;99.90;;;;;;5030662;28;20500;-70
2023/03/29 07:13:27;;;;;;;3.00;2.70;;;8.20;99.90;;;;;;5049161;28;20531;-71
2023/03/29 07:15:54;;;;;;;2.67;2.37;;;8.30;99.90;;;;;;5009474;28;20516;-70
2023/03/29 07:18:33;;;;;;;4.63;3.40;;;8.30;99.90;;;;;;5023010;28;20450;-70
2023/03/29 07:20:59;;;;;;;5.80;3.20;;;8.30;99.90;;;;;;5011359;28;20471;-69
2023/03/29 07:23:25;;;;;;;6.63;3.93;;;8.30;99.90;;;;;;5002970;28;20230;-70
2023/03/29 07:25:50;;;;;;;5.07;3.20;;;8.30;99.90;;;;;;5027806;28;20297;-69
2023/03/29 07:28:17;;;;;;;4.10;3.00;;;8.40;99.90;;;;;;5025689;28;20265;-70
2023/03/29 07:30:43;;;;;;;3.43;3.00;;;8.40;99.90;;;;;;5026926;28;20473;-69
2023/03/29 07:33:17;;;;;;;4.23;3.80;;;8.40;99.90;;;;;;5043643;28;20219;-69
2023/03/29 07:35:54;;;;;;;4.63;2.50;;;8.40;99.90;;;;;;5012206;28;20451;-71
2023/03/29 07:38:20;;;;;;;4.87;2.93;;;8.40;99.90;;;;;;5018978;28;20508;-70
2023/03/29 07:40:53;;;;;;;3.17;2.77;;;8.40;99.90;;;;;;5028817;28;20262;-70
2023/03/29 07:43:38;;;;;;;3.50;2.70;;;8.50;99.90;;;;;;5023617;28;20798;-69
2023/03/29 07:46:05;;;;;;;2.57;2.37;;;8.50;99.90;;;;;;5022775;28;20458;-70
2023/03/29 07:48:35;;;;;;;7.30;2.50;;;8.50;99.90;;;;;;5025787;28;20441;-70
2023/03/29 07:51:05;;;;;;;3.47;2.37;;;8.60;99.90;;;;;;5010962;28;20458;-67
2023/03/29 07:53:51;;;;;;;3.00;2.47;;;8.60;99.90;;;;;;5040220;28;20445;-70
2023/03/29 07:56:40;;;;;;;2.40;2.20;;;8.60;99.90;;;;;;5018778;28;20443;-70
2023/03/29 07:59:17;;;;;;;3.23;2.33;;;8.60;99.90;;;;;;5008799;28;20449;-70
2023/03/29 08:01:47;;;;;;;2.67;2.00;;;8.60;99.90;;;;;;5017252;28;20533;-70
2023/03/29 08:04:23;;;;;;;2.37;2.17;;;8.60;99.90;;;;;;5010966;28;20465;-70
2023/03/29 08:07:08;;;;;;;4.53;2.87;;;8.70;99.90;;;;;;5039152;28;20520;-70
2023/03/29 08:09:54;;;;;;;4.47;2.60;;;8.70;99.90;;;;;;4983992;28;20454;-68
2023/03/29 08:12:26;;;;;;;5.63;2.20;;;8.70;99.90;;;;;;4993845;28;20461;-70
2023/03/29 08:14:55;;;;;;;3.67;2.73;;;8.80;99.90;;;;;;5029218;28;20867;-69
2023/03/29 08:17:25;;;;;;;2.70;2.40;;;8.80;99.90;;;;;;5027277;28;20455;-70
2023/03/29 08:19:51;;;;;;;5.43;2.50;;;8.80;99.90;;;;;;5018357;28;20542;-70
2023/03/29 08:22:19;;;;;;;4.10;2.60;;;8.90;99.90;;;;;;5011472;28;20252;-70
2023/03/29 08:25:20;;;;;;;3.03;2.53;;;8.90;99.90;;;;;;5022230;28;20539;-69
2023/03/29 08:27:50;;;;;;;4.00;2.70;;;9.00;99.90;;;;;;5025198;28;20447;-67
2023/03/29 08:30:26;;;;;;;2.53;2.00;;;9.10;99.90;;;;;;5024254;28;20465;-71
2023/03/29 08:32:52;;;;;;;5.83;2.60;;;9.10;99.90;;;;;;5011708;28;20450;-70
2023/03/29 08:35:19;;;;;;;3.07;2.37;;;9.10;99.90;;;;;;5009112;28;20549;-70
2023/03/29 08:38:05;;;;;;;2.90;2.57;;;9.10;99.90;;;;;;5040887;28;20955;-69
2023/03/29 08:40:30;;;;;;;5.70;2.60;;;9.20;99.90;;;;;;5009276;28;20465;-69
2023/03/29 08:43:33;;;;;;;5.10;3.67;;;9.30;99.90;;;;;;5008797;28;20288;-70
2023/03/29 08:46:39;;;;;;;2.70;2.50;;;9.30;99.90;;;;;;5004730;28;20474;-70
2023/03/29 08:49:19;;;;;;;2.80;2.30;;;9.40;99.90;;;;;;5006647;28;20465;-69
2023/03/29 08:51:54;;;;;;;4.17;2.87;;;9.50;99.90;;;;;;5027483;28;20487;-70
2023/03/29 08:54:25;;;;;;;3.17;2.60;;;9.50;99.90;;;;;;5016358;28;20466;-70
2023/03/29 08:57:39;;;;;;;5.60;2.63;;;9.50;99.90;;;;;;4967305;28;20468;-70
2023/03/29 09:00:22;;;;;;;3.17;2.37;;;9.60;99.90;;;;;;5028367;28;20457;-68
2023/03/29 09:02:50;;;;;;;5.13;2.83;;;9.70;99.90;;;;;;5022780;28;20471;-70
2023/03/29 09:05:45;;;;;;;3.23;2.70;;;9.70;99.90;;;;;;5034304;28;20873;-70
2023/03/29 09:08:21;;;;;;;3.10;2.27;;;9.70;99.90;;;;;;5015306;28;20680;-70
2023/03/29 09:11:08;;;;;;;3.70;2.97;;;9.70;99.90;;;;;;5011580;28;20459;-70
2023/03/29 09:14:00;;;;;;;3.70;2.60;;;9.80;99.90;;;;;;5022698;28;20456;-70
2023/03/29 09:16:36;;;;;;;3.30;2.70;;;9.90;99.90;;;;;;5037008;28;20581;-70
2023/03/29 09:19:32;;;;;;;5.00;3.10;;;9.90;99.90;;;;;;5018583;28;20953;-69
2023/03/29 09:22:29;;;;;;;8.00;2.73;;;10.00;99.90;;;;;;5022333;28;20469;-70
2023/03/29 09:25:23;;;;;;;10.60;3.77;;;10.00;99.90;;;;;;5016664;28;20468;-70
2023/03/29 09:28:28;;;;;;;6.57;3.13;;;10.00;99.90;;;;;;5042699;28;20451;-66
2023/03/29 09:31:01;;;;;;;4.70;3.60;;;10.20;99.90;;;;;;5024331;28;20457;-68
2023/03/29 09:33:48;;;;;;;3.50;3.20;;;10.10;99.90;;;;;;5024791;28;20466;-70
2023/03/29 09:36:20;;;;;;;3.40;3.10;;;10.20;99.90;;;;;;5015517;28;20465;-71
2023/03/29 09:38:52;;;;;;;3.70;3.00;;;10.30;99.90;;;;;;5011578;28;20565;-70
2023/03/29 09:41:56;;;;;;;3.50;2.80;;;10.30;99.90;;;;;;5025153;28;20459;-69
2023/03/29 09:44:28;;;;;;;2.93;2.67;;;10.30;99.90;;;;;;5016802;28;20539;-68
2023/03/29 09:47:06;;;;;;;3.53;2.80;;;10.40;99.90;;;;;;5022079;28;21007;-69
2023/03/29 09:49:38;;;;;;;4.90;3.33;;;10.40;99.90;;;;;;5023877;28;20501;-68
2023/03/29 09:52:10;;;;;;;4.57;3.77;;;10.40;99.90;;;;;;5024041;28;20446;-70
2023/03/29 09:54:36;;;;;;;4.10;3.10;;;10.50;99.90;;;;;;5024508;28;20439;-72
2023/03/29 09:57:21;;;;;;;4.20;3.47;;;10.50;99.90;;;;;;5026361;28;20474;-70
2023/03/29 09:59:50;;;;;;;5.37;2.83;;;10.60;99.90;;;;;;5018310;28;20445;-70
2023/03/29 10:02:18;;;;;;;2.83;2.63;;;10.70;99.90;;;;;;5013496;28;20282;-70
2023/03/29 10:04:44;;;;;;;3.77;2.93;;;10.80;99.90;;;;;;5036303;28;20462;-70
2023/03/29 10:07:17;;;;;;;2.67;2.10;;;10.90;99.90;;;;;;5028298;28;20455;-70
2023/03/29 10:09:49;;;;;;;6.27;2.83;;;11.00;99.90;;;;;;5029263;28;20450;-71
2023/03/29 10:12:19;;;;;;;2.60;2.40;;;11.00;99.90;;;;;;5008994;28;20458;-71
2023/03/29 10:14:48;;;;;;;3.80;2.63;;;11.20;99.90;;;;;;5022796;28;20482;-71
2023/03/29 10:17:24;;;;;;;4.10;2.27;;;11.30;99.90;;;;;;5037050;28;20517;-70
2023/03/29 10:20:00;;;;;;;2.53;2.13;;;11.40;99.90;;;;;;5015498;28;20459;-70
2023/03/29 10:22:31;;;;;;;4.90;2.37;;;11.40;99.90;;;;;;5045926;28;20482;-70
2023/03/29 10:24:57;;;;;;;2.00;1.83;;;11.50;99.90;;;;;;5017743;28;21022;-71
2023/03/29 10:27:29;;;;;;;3.00;2.53;;;11.70;99.90;;;;;;5012846;28;20539;-70
2023/03/29 10:29:58;;;;;;;3.30;2.10;;;11.80;99.90;;;;;;5048270;28;20466;-71
2023/03/29 10:32:32;;;;;;;4.50;2.57;;;11.90;99.90;;;;;;5034470;28;20458;-71
2023/03/29 10:35:28;;;;;;;4.00;2.43;;;12.10;99.90;;;;;;5022991;28;20470;-70
2023/03/29 10:37:57;;;;;;;1.93;1.80;;;12.20;99.90;;;;;;5022384;28;20957;-70
2023/03/29 10:40:33;;;;;;;5.13;2.10;;;12.30;99.90;;;;;;5025935;28;20563;-71
2023/03/29 10:43:11;;;;;;;3.00;2.80;;;12.60;99.90;;;;;;5029798;28;20839;-69
2023/03/29 10:45:38;;;;;;;4.60;2.87;;;12.80;99.90;;;;;;5045757;28;20580;-71
2023/03/29 10:48:08;;;;;;;3.13;2.73;;;13.00;99.90;;;;;;5050357;28;20452;-71
2023/03/29 10:50:36;;;;;;;3.13;2.83;;;13.20;99.90;;;;;;5022617;28;20447;-71
2023/03/29 10:53:12;;;;;;;8.63;3.10;;;13.20;99.90;;;;;;5024322;28;20983;-70
2023/03/29 10:55:47;;;;;;;8.67;5.90;;;13.40;99.90;;;;;;5023492;28;20929;-70
2023/03/29 10:58:30;;;;;;;4.67;4.17;;;13.60;99.90;;;;;;5025259;28;20462;-70
2023/03/29 11:00:57;;;;;;;3.77;2.77;;;13.90;99.90;;;;;;5011062;28;20487;-70
2023/03/29 11:03:47;;;;;;;11.43;3.13;;;13.90;99.90;;;;;;5030203;28;20487;-70
2023/03/29 11:06:19;;;;;;;2.97;2.67;;;14.00;99.90;;;;;;5042823;28;21004;-71
2023/03/29 11:08:57;;;;;;;4.10;3.63;;;14.00;99.90;;;;;;5011665;28;20450;-71
2023/03/29 11:11:49;;;;;;;2.63;2.07;;;14.10;99.90;;;;;;5024584;28;20466;-71
2023/03/29 11:14:40;;;;;;;5.63;2.30;;;14.30;99.90;;;;;;5020691;28;20470;-71
2023/03/29 11:17:24;;;;;;;4.47;2.30;;;14.30;99.90;;;;;;5047781;28;21042;-69
2023/03/29 11:20:02;;;;;;;2.30;2.10;;;14.40;99.90;;;;;;5027843;28;20465;-70
2023/03/29 11:22:45;;;;;;;3.23;1.70;;;14.50;99.90;;;;;;5013984;28;20450;-70
2023/03/29 11:25:19;;;;;;;2.10;1.90;;;14.50;99.90;;;;;;5032612;28;20470;-71
2023/03/29 11:27:48;;;;;;;2.10;1.90;;;14.60;99.90;;;;;;5025909;28;20466;-71
2023/03/29 11:30:40;;;;;;;3.23;1.97;;;14.50;99.90;;;;;;5026493;28;20464;-70
2023/03/29 11:33:33;;;;;;;2.13;1.93;;;14.60;99.90;;;;;;5023660;28;20458;-70
2023/03/29 11:36:04;;;;;;;4.10;1.90;;;14.80;99.90;;;;;;5022307;28;20464;-67
2023/03/29 11:38:36;;;;;;;2.53;2.33;;;14.70;99.90;;;;;;5027451;28;20453;-66
2023/03/29 11:41:11;;;;;;;8.23;2.57;;;14.70;99.90;;;;;;5021903;28;20469;-69
2023/03/29 11:43:43;;;;;;;7.33;4.07;;;14.70;99.90;;;;;;5047190;28;20457;-68
2023/03/29 11:46:36;;;;;;;26.10;15.30;;;14.70;99.90;;;;;;5024203;28;20458;-68
2023/03/29 11:49:34;;;;;;;16.90;11.93;;;14.70;99.90;;;;;;5047374;28;21014;-69
2023/03/29 11:52:38;;;;;;;9.43;5.90;;;14.70;99.90;;;;;;4989678;28;21135;-68
2023/03/29 11:55:08;;;;;;;4.83;3.23;;;14.70;99.90;;;;;;5023944;28;20462;-68
2023/03/29 11:57:39;;;;;;;3.57;2.87;;;14.80;99.90;;;;;;5031832;28;20478;-68
2023/03/29 12:00:20;;;;;;;4.33;2.90;;;14.70;99.90;;;;;;5026415;28;20828;-67
2023/03/29 12:03:09;;;;;;;2.90;2.70;;;14.70;99.90;;;;;;5030241;28;20524;-69
2023/03/29 12:05:41;;;;;;;5.40;4.90;;;14.70;99.90;;;;;;5025981;28;20451;-68
2023/03/29 12:08:41;;;;;;;5.10;3.77;;;14.70;99.90;;;;;;5052233;28;20488;-66
2023/03/29 12:11:32;;;;;;;4.47;2.90;;;14.70;99.90;;;;;;5020049;28;20468;-67
2023/03/29 12:14:24;;;;;;;2.20;1.70;;;14.80;99.90;;;;;;5036909;28;20461;-68
2023/03/29 12:16:59;;;;;;;4.83;2.50;;;14.80;99.90;;;;;;5023921;28;20904;-67
2023/03/29 12:19:37;;;;;;;3.63;2.93;;;14.80;99.90;;;;;;5019156;28;20855;-69
2023/03/29 12:22:06;;;;;;;1.80;1.70;;;14.80;99.90;;;;;;5044993;28;20481;-68
2023/03/29 12:24:37;;;;;;;6.03;4.10;;;14.90;99.90;;;;;;5024650;28;20455;-69
2023/03/29 12:27:25;;;;;;;7.67;3.77;;;15.00;99.90;;;;;;5022014;28;21003;-67
2023/03/29 12:30:15;;;;;;;3.63;2.57;;;15.10;99.90;;;;;;5034624;28;20537;-71
2023/03/29 12:33:11;;;;;;;3.87;2.13;;;15.20;99.90;;;;;;5025031;28;20560;-70
2023/03/29 12:36:33;;;;;;;2.57;1.97;;;15.20;99.90;;;;;;5010312;28;20474;-71
2023/03/29 12:39:20;;;;;;;3.13;2.67;;;15.30;99.90;;;;;;5042159;28;20880;-68
2023/03/29 12:42:14;;;;;;;4.37;2.83;;;15.20;99.90;;;;;;5042570;28;20552;-69
2023/03/29 12:44:59;;;;;;;6.93;4.97;;;15.30;99.90;;;;;;5031414;28;20520;-68
2023/03/29 12:47:35;;;;;;;4.60;3.90;;;15.40;99.90;;;;;;5041219;28;20530;-69
2023/03/29 12:50:03;;;;;;;2.87;2.67;;;15.40;99.90;;;;;;5028926;28;20516;-68
2023/03/29 12:52:34;;;;;;;3.90;2.70;;;15.40;99.90;;;;;;5006986;28;20492;-68
2023/03/29 12:55:15;;;;;;;5.07;3.27;;;15.50;99.90;;;;;;5025780;28;20474;-68
2023/03/29 12:58:02;;;;;;;5.43;2.80;;;15.60;99.90;;;;;;4996995;28;20467;-68
2023/03/29 13:00:43;;;;;;;2.63;2.10;;;15.70;99.90;;;;;;5038168;28;20475;-69
2023/03/29 13:03:28;;;;;;;2.30;2.10;;;15.70;99.90;;;;;;5022208;28;20490;-68
2023/03/29 13:06:04;;;;;;;4.30;2.40;;;15.70;99.90;;;;;;5029266;28;20964;-69
2023/03/29 13:08:42;;;;;;;4.73;2.30;;;15.80;99.90;;;;;;5036013;28;20482;-68
2023/03/29 13:11:30;;;;;;;3.60;2.30;;;15.70;99.90;;;;;;5032035;28;20463;-68
2023/03/29 13:13:59;;;;;;;2.63;2.43;;;15.80;99.90;;;;;;5025566;28;20525;-69
2023/03/29 13:16:33;;;;;;;2.50;2.30;;;15.80;99.90;;;;;;4998968;28;20471;-68
2023/03/29 13:19:29;;;;;;;2.50;2.30;;;15.80;99.90;;;;;;5023182;28;20467;-68
2023/03/29 13:22:22;;;;;;;3.20;2.70;;;15.80;99.90;;;;;;5045363;28;21061;-69
2023/03/29 13:25:01;;;;;;;2.83;2.40;;;15.90;99.90;;;;;;5012177;28;20501;-68
2023/03/29 13:27:48;;;;;;;5.50;5.00;;;15.90;99.90;;;;;;5013172;28;20458;-67
2023/03/29 13:30:25;;;;;;;5.20;4.13;;;15.90;99.90;;;;;;5027392;28;20570;-69
2023/03/29 13:33:12;;;;;;;3.03;2.80;;;15.90;99.90;;;;;;5013998;28;20465;-68
2023/03/29 13:36:23;;;;;;;4.20;2.80;;;15.90;99.90;;;;;;5008280;28;20471;-68